Airfield :
LOGIN :

Register | Disclaimer

   EN    FR    IT 

 










Legend :    VFR   Marginal VFR   IFR   Intensive IFR   Very Intensive IFR
Visi :
Ceiling :
>= 8 km
>= 3000ft
5 to 8 km
1000 to 3000 ft
1500m to 5 km
500 to 1000 ft
800 to 1500m
200 to 500 ft
< 800m
< 200 ft
Symbols :   Thunderstorms  Fog  Heavy snow  Heavy precipitations  Wind > 20 kt
SIGMETs :     Misc.  Thunderstorms  Icing  Turbulence  Mountain Waves  Volcanic Ashes






- Airport Elevation : 580 ft


LFOA - Avord

CURRENT METAR :
  • 181100Z AUTO VRB02KT CAVOK 07/03 Q1029

EXPIRED METARs :
  • 181030Z AUTO 23005KT CAVOK 06/03 Q1029
  • 181000Z AUTO 22004KT 190V260 CAVOK 05/03 Q1029
  • 180930Z AUTO 20004KT 9999 FEW028 03/02 Q1029
  • 180900Z AUTO 18003KT 9999 SCT029 SCT038 BKN220 02/01 Q1029
  • 180830Z AUTO 17002KT 9999 FEW029 01/00 Q1029

TAF TAF LFOA
Valid from the 17 at 15:00 until the 18 at 15:00 UTC


171400Z 1715/1815 26010KT 9999 SCT020 BKN030
PROB40
TEMPO 1715/1717 28015G30KT 4000 SHRA BKN010 BKN015CB
BECMG 1804/1806 VRB02KT
PROB40
TEMPO 1804/1809 3000 BR SCT008



MET'MAP, your aeronautical weather chart ! - Copyright ORBIFLY December 2007 - Disclaimer

ORBIFLY MET'MAP TEAM :

Programming & Development : Alexandra Zaïnal
Concept & original design : Baudouin d'Aumeries
Assistance for programming : Marc-Olivier Méhu
Technical & hardware support : Manuel Goepfert

Contact : metmap@orbifly.com




SOURCES & CREDITS :

   NOAA